createdAt,value
2023-01-20T00:01:00.661Z,-2.26
2023-01-20T00:02:02.537Z,-2.14
2023-01-20T00:03:04.437Z,-2.19
2023-01-20T00:04:06.655Z,-2.17
2023-01-20T00:05:08.688Z,-2.12
2023-01-20T00:06:10.264Z,-2.18
2023-01-20T00:07:11.942Z,-2.03
2023-01-20T00:08:13.520Z,-2.01
2023-01-20T00:09:17.047Z,-1.99
2023-01-20T00:10:18.684Z,-1.97
2023-01-20T00:11:20.852Z,-2.03
2023-01-20T00:12:22.513Z,-1.96
2023-01-20T00:13:24.336Z,-1.98
2023-01-20T00:14:27.740Z,-2.11
2023-01-20T00:15:29.362Z,-2.15
2023-01-20T00:16:32.096Z,-2.15
2023-01-20T00:17:33.837Z,-2.14
2023-01-20T00:18:35.717Z,-2.18
2023-01-20T00:19:37.318Z,-2.24
2023-01-20T00:20:38.896Z,-2.22
2023-01-20T00:21:41.253Z,-2.22
2023-01-20T00:22:42.880Z,-2.23
2023-01-20T00:23:45.553Z,-2.29
2023-01-20T00:24:47.030Z,-2.26
2023-01-20T00:25:48.606Z,-2.26
2023-01-20T00:26:50.356Z,-2.27
2023-01-20T00:27:55.290Z,-2.29
2023-01-20T00:28:57.832Z,-2.19
2023-01-20T00:29:59.514Z,-2.22
2023-01-20T00:31:15.226Z,-2.14
2023-01-20T00:32:16.861Z,-2.18
2023-01-20T00:33:18.442Z,-2.08
2023-01-20T00:34:20.210Z,-2.18
2023-01-20T00:35:21.929Z,-2.06
2023-01-20T00:36:24.576Z,-1.98
2023-01-20T00:37:26.103Z,-2.06
2023-01-20T00:38:27.764Z,-2.02
2023-01-20T00:39:29.401Z,-2.09
2023-01-20T00:40:31.017Z,-2.19
2023-01-20T00:41:32.710Z,-2.25
2023-01-20T00:42:34.316Z,-2.27
2023-01-20T00:43:36.388Z,-2.27
2023-01-20T00:44:37.964Z,-2.30
2023-01-20T00:45:40.948Z,-2.22
2023-01-20T00:46:42.847Z,-2.32
2023-01-20T00:47:44.512Z,-2.29
2023-01-20T00:48:46.099Z,-2.24
2023-01-20T00:49:48.202Z,-2.29
2023-01-20T00:50:49.840Z,-2.32
2023-01-20T00:51:51.500Z,-2.29
2023-01-20T00:52:53.083Z,-2.34
2023-01-20T00:53:54.761Z,-2.31
2023-01-20T00:54:56.352Z,-2.28
2023-01-20T00:55:58.050Z,-2.29
2023-01-20T00:56:59.707Z,-2.29
2023-01-20T00:58:01.355Z,-2.27
2023-01-20T00:59:02.996Z,-2.34
2023-01-20T01:00:05.251Z,-2.25
2023-01-20T01:01:06.969Z,-2.28
2023-01-20T01:02:08.678Z,-2.28
2023-01-20T01:03:10.593Z,-2.28
2023-01-20T01:04:12.227Z,-2.26
2023-01-20T01:05:14.211Z,-2.31
2023-01-20T01:06:17.836Z,-2.32
2023-01-20T01:07:20.118Z,-2.34
2023-01-20T01:08:21.731Z,-2.23
2023-01-20T01:09:23.388Z,-2.31
2023-01-20T01:10:25.064Z,-2.26
2023-01-20T01:11:26.720Z,-2.20
2023-01-20T01:12:28.526Z,-2.21
2023-01-20T01:13:30.142Z,-2.20
2023-01-20T01:14:32.393Z,-2.02
2023-01-20T01:15:34.204Z,-1.97
2023-01-20T01:16:36.226Z,-2.00
2023-01-20T01:17:37.956Z,-2.06
2023-01-20T01:18:40.426Z,-2.08
2023-01-20T01:19:42.068Z,-2.03
2023-01-20T01:20:44.811Z,-1.95
2023-01-20T01:21:46.493Z,-1.83
2023-01-20T01:22:48.166Z,-2.00
2023-01-20T01:23:51.833Z,-1.69
2023-01-20T01:24:53.435Z,-1.89
2023-01-20T01:25:54.993Z,-1.83
2023-01-20T01:26:56.610Z,-1.96
2023-01-20T01:27:58.171Z,-2.00
2023-01-20T01:28:59.758Z,-1.84
2023-01-20T01:30:01.415Z,-1.92
2023-01-20T01:31:04.134Z,-1.99
2023-01-20T01:32:06.274Z,-2.03
2023-01-20T01:33:07.941Z,-1.95
2023-01-20T01:34:09.512Z,-1.91
2023-01-20T01:35:11.148Z,-1.90
2023-01-20T01:36:14.655Z,-2.03
2023-01-20T01:37:16.248Z,-2.11
2023-01-20T01:38:17.856Z,-2.13
2023-01-20T01:39:19.492Z,-2.18
2023-01-20T01:40:21.142Z,-2.11
2023-01-20T01:41:22.781Z,-2.22
2023-01-20T01:42:25.957Z,-2.27
2023-01-20T01:43:29.094Z,-2.29
2023-01-20T01:44:31.853Z,-2.31
2023-01-20T01:45:33.572Z,-2.34
2023-01-20T01:46:35.616Z,-2.32
2023-01-20T01:47:40.527Z,-2.14
2023-01-20T01:48:45.905Z,-2.18
2023-01-20T01:49:48.137Z,-2.12
2023-01-20T01:51:03.073Z,-1.98
2023-01-20T01:52:10.912Z,-2.09
2023-01-20T01:53:14.254Z,-2.13
2023-01-20T01:54:18.954Z,-2.21
2023-01-20T01:55:23.920Z,-2.17
2023-01-20T01:56:26.425Z,-2.23
2023-01-20T01:57:29.235Z,-2.28
2023-01-20T01:58:36.213Z,-2.21
2023-01-20T01:59:38.737Z,-2.07
2023-01-20T02:00:40.509Z,-2.06
2023-01-20T02:01:46.935Z,-2.02
2023-01-20T02:02:48.795Z,-1.79
2023-01-20T02:03:53.230Z,-1.85
2023-01-20T02:04:54.799Z,-1.86
2023-01-20T02:05:57.140Z,-1.94
2023-01-20T02:07:03.683Z,-1.91
2023-01-20T02:08:07.674Z,-2.01
2023-01-20T02:09:09.322Z,-2.03
2023-01-20T02:10:11.782Z,-2.08
2023-01-20T02:11:13.457Z,-2.00
2023-01-20T02:12:17.658Z,-2.09
2023-01-20T02:13:19.208Z,-1.99
2023-01-20T02:14:38.177Z,-2.09
2023-01-20T02:15:52.468Z,-2.10
2023-01-20T02:17:05.520Z,-2.08
2023-01-20T02:18:22.492Z,-2.14
2023-01-20T02:20:01.527Z,-2.27
2023-01-20T02:21:03.114Z,-2.27
2023-01-20T02:22:17.676Z,-2.26
2023-01-20T02:23:37.755Z,-2.27
2023-01-20T02:24:42.204Z,-2.32
2023-01-20T02:26:05.538Z,-2.36
2023-01-20T02:27:25.423Z,-2.39
2023-01-20T02:29:03.099Z,-2.35
2023-01-20T02:30:21.603Z,-2.31
2023-01-20T02:31:25.955Z,-2.23
2023-01-20T02:32:33.376Z,-2.29
2023-01-20T02:33:45.929Z,-2.34
2023-01-20T02:34:59.155Z,-2.22
2023-01-20T02:36:11.712Z,-2.03
2023-01-20T02:37:23.947Z,-2.18
2023-01-20T02:38:33.008Z,-2.14
2023-01-20T02:39:48.870Z,-2.17
2023-01-20T02:40:50.431Z,-2.00
2023-01-20T02:42:12.903Z,-1.99
2023-01-20T02:43:14.379Z,-1.97
2023-01-20T02:44:34.339Z,-1.86
2023-01-20T02:45:43.044Z,-1.97
2023-01-20T02:47:02.791Z,-1.87
2023-01-20T02:48:16.050Z,-1.99
2023-01-20T02:49:28.339Z,-1.75
2023-01-20T02:50:40.702Z,-1.88
2023-01-20T02:52:00.172Z,-1.82
2023-01-20T02:53:03.339Z,-1.99
2023-01-20T02:54:10.848Z,-1.97
2023-01-20T02:55:21.305Z,-2.13
2023-01-20T02:56:25.638Z,-2.21
2023-01-20T02:57:33.564Z,-2.31
2023-01-20T02:58:40.873Z,-2.32
2023-01-20T02:59:44.557Z,-2.36
2023-01-20T03:00:55.065Z,-2.29
2023-01-20T03:02:04.817Z,-2.22
2023-01-20T03:03:10.602Z,-2.25
2023-01-20T03:04:14.062Z,-2.36
2023-01-20T03:05:21.484Z,-2.41
2023-01-20T03:06:25.702Z,-2.40
2023-01-20T03:07:28.669Z,-2.39
2023-01-20T03:08:31.976Z,-2.44
2023-01-20T03:09:38.084Z,-2.33
2023-01-20T03:10:41.880Z,-2.41
2023-01-20T03:11:47.608Z,-2.33
2023-01-20T03:12:57.333Z,-2.33
2023-01-20T03:14:05.248Z,-2.31
2023-01-20T03:15:07.513Z,-2.31
2023-01-20T03:16:14.796Z,-2.17
2023-01-20T03:17:16.436Z,-2.20
2023-01-20T03:18:18.062Z,-2.31
2023-01-20T03:19:20.689Z,-2.37
2023-01-20T03:20:22.449Z,-2.37
2023-01-20T03:21:24.454Z,-2.42
2023-01-20T03:22:26.063Z,-2.46
2023-01-20T03:23:28.537Z,-2.54
2023-01-20T03:24:32.836Z,-2.46
2023-01-20T03:25:34.500Z,-2.43
2023-01-20T03:26:36.179Z,-2.49
2023-01-20T03:27:37.870Z,-2.31
2023-01-20T03:28:41.513Z,-2.33
2023-01-20T03:29:43.031Z,-2.34
2023-01-20T03:30:44.610Z,-2.38
2023-01-20T03:31:49.228Z,-2.46
2023-01-20T03:32:51.791Z,-2.46
2023-01-20T03:33:55.675Z,-2.46
2023-01-20T03:34:57.632Z,-2.42
2023-01-20T03:35:59.283Z,-2.45
2023-01-20T03:37:01.560Z,-2.41
2023-01-20T03:38:03.241Z,-2.35
2023-01-20T03:39:04.852Z,-2.30
2023-01-20T03:40:07.209Z,-2.31
2023-01-20T03:41:17.199Z,-2.18
2023-01-20T03:42:32.261Z,-1.97
2023-01-20T03:43:43.354Z,-2.03
2023-01-20T03:45:06.926Z,-2.15
2023-01-20T03:46:18.593Z,-2.32
2023-01-20T03:47:29.091Z,-2.33
2023-01-20T03:49:17.046Z,-2.37
2023-01-20T03:50:28.798Z,-2.39
2023-01-20T03:51:36.564Z,-2.40
2023-01-20T03:52:54.084Z,-2.38
2023-01-20T03:54:02.459Z,-2.40
2023-01-20T03:55:10.603Z,-2.34
2023-01-20T03:56:20.176Z,-2.30
2023-01-20T03:57:25.194Z,-2.31
2023-01-20T03:58:35.469Z,-2.25
2023-01-20T03:59:38.824Z,-2.29
2023-01-20T04:00:43.301Z,-2.14
2023-01-20T04:01:45.558Z,-1.99
2023-01-20T04:02:47.377Z,-2.11
2023-01-20T04:03:51.309Z,-2.16
2023-01-20T04:04:53.505Z,-2.21
2023-01-20T04:05:55.861Z,-2.18
2023-01-20T04:06:57.605Z,-2.28
2023-01-20T04:08:03.764Z,-2.29
2023-01-20T04:09:08.853Z,-2.29
2023-01-20T04:10:12.304Z,-2.34
2023-01-20T04:11:14.023Z,-2.35
2023-01-20T04:12:15.621Z,-2.37
2023-01-20T04:13:17.345Z,-2.38
2023-01-20T04:14:19.012Z,-2.40
2023-01-20T04:15:21.858Z,-2.35
2023-01-20T04:16:24.835Z,-2.40
2023-01-20T04:17:29.460Z,-2.39
2023-01-20T04:18:31.089Z,-2.35
2023-01-20T04:19:32.673Z,-2.40
2023-01-20T04:20:34.226Z,-2.39
2023-01-20T04:21:42.250Z,-2.43
2023-01-20T04:22:53.932Z,-2.39
2023-01-20T04:24:16.820Z,-2.39
2023-01-20T04:25:26.935Z,-2.47
2023-01-20T04:26:28.599Z,-2.45
2023-01-20T04:27:30.208Z,-2.35
2023-01-20T04:28:32.314Z,-2.38
2023-01-20T04:29:33.952Z,-2.35
2023-01-20T04:30:35.539Z,-2.30
2023-01-20T04:31:37.545Z,-2.30
2023-01-20T04:32:39.223Z,-2.22
2023-01-20T04:33:41.421Z,-2.24
2023-01-20T04:34:43.070Z,-2.14
2023-01-20T04:35:44.568Z,-2.17
2023-01-20T04:36:46.196Z,-2.16
2023-01-20T04:37:47.845Z,-2.06
2023-01-20T04:38:49.439Z,-2.01
2023-01-20T04:39:51.028Z,-2.04
2023-01-20T04:40:52.719Z,-2.02
2023-01-20T04:41:54.388Z,-2.03
2023-01-20T04:42:56.032Z,-2.10
2023-01-20T04:43:57.614Z,-1.98
2023-01-20T04:44:59.305Z,-1.93
2023-01-20T04:46:00.934Z,-1.96
2023-01-20T04:47:02.439Z,-1.97
2023-01-20T04:48:07.967Z,-1.86
2023-01-20T04:49:11.027Z,-2.07
2023-01-20T04:50:13.861Z,-2.07
2023-01-20T04:51:15.469Z,-2.22
2023-01-20T04:52:17.553Z,-2.14
2023-01-20T04:53:19.359Z,-2.09
2023-01-20T04:54:21.225Z,-2.10
2023-01-20T04:55:22.863Z,-2.08
2023-01-20T04:56:24.578Z,-2.09
2023-01-20T04:57:26.199Z,-2.10
2023-01-20T04:58:27.837Z,-2.16
2023-01-20T04:59:29.504Z,-2.10
2023-01-20T05:00:31.308Z,-2.06
2023-01-20T05:01:32.940Z,-2.11
2023-01-20T05:02:34.615Z,-1.99
2023-01-20T05:03:36.469Z,-2.09
2023-01-20T05:04:38.145Z,-2.12
2023-01-20T05:05:40.084Z,-2.00
2023-01-20T05:06:43.395Z,-1.94
2023-01-20T05:07:45.288Z,-1.99
2023-01-20T05:08:46.955Z,-2.05
2023-01-20T05:09:48.542Z,-2.16
2023-01-20T05:10:50.254Z,-2.15
2023-01-20T05:11:51.870Z,-2.16
2023-01-20T05:12:53.500Z,-2.22
2023-01-20T05:13:55.080Z,-2.19
2023-01-20T05:14:56.706Z,-2.11
2023-01-20T05:15:58.498Z,-2.09
2023-01-20T05:17:00.328Z,-2.14
2023-01-20T05:18:01.953Z,-2.19
2023-01-20T05:19:03.541Z,-2.19
2023-01-20T05:20:05.461Z,-2.12
2023-01-20T05:21:11.232Z,-2.01
2023-01-20T05:22:12.866Z,-2.05
2023-01-20T05:23:14.635Z,-2.08
2023-01-20T05:24:16.253Z,-2.10
2023-01-20T05:25:17.863Z,-1.95
2023-01-20T05:26:19.443Z,-1.98
2023-01-20T05:27:20.983Z,-2.14
2023-01-20T05:28:22.590Z,-2.19
2023-01-20T05:29:24.213Z,-2.13
2023-01-20T05:30:25.814Z,-2.03
2023-01-20T05:31:27.411Z,-2.09
2023-01-20T05:32:29.061Z,-2.04
2023-01-20T05:33:30.643Z,-2.04
2023-01-20T05:34:32.240Z,-2.02
2023-01-20T05:35:33.894Z,-2.04
2023-01-20T05:36:35.610Z,-2.01
2023-01-20T05:37:37.226Z,-1.99
2023-01-20T05:38:38.902Z,-2.01
2023-01-20T05:39:40.490Z,-1.97
2023-01-20T05:40:42.059Z,-2.05
2023-01-20T05:41:44.367Z,-2.14
2023-01-20T05:42:45.994Z,-2.10
2023-01-20T05:43:47.510Z,-2.27
2023-01-20T05:44:49.172Z,-2.33
2023-01-20T05:45:50.685Z,-2.41
2023-01-20T05:46:52.230Z,-2.44
2023-01-20T05:47:58.070Z,-2.37
2023-01-20T05:48:59.617Z,-2.17
2023-01-20T05:50:01.273Z,-2.30
2023-01-20T05:51:03.029Z,-2.30
2023-01-20T05:52:04.862Z,-2.49
2023-01-20T05:53:06.471Z,-2.58
2023-01-20T05:54:08.045Z,-2.64
2023-01-20T05:55:09.869Z,-2.60
2023-01-20T05:56:15.924Z,-2.58
2023-01-20T05:57:18.334Z,-2.59
2023-01-20T05:58:19.957Z,-2.69
2023-01-20T05:59:23.309Z,-2.70
2023-01-20T06:00:25.017Z,-2.84
2023-01-20T06:01:26.671Z,-2.76
2023-01-20T06:02:30.953Z,-2.79
2023-01-20T06:03:32.681Z,-2.73
2023-01-20T06:04:34.470Z,-2.84
2023-01-20T06:05:36.146Z,-2.67
2023-01-20T06:06:38.058Z,-2.68
2023-01-20T06:07:39.756Z,-2.81
2023-01-20T06:08:41.923Z,-2.69
2023-01-20T06:09:43.572Z,-2.63
2023-01-20T06:10:45.228Z,-2.64
2023-01-20T06:11:46.856Z,-2.53
2023-01-20T06:12:53.128Z,-2.62
2023-01-20T06:13:54.796Z,-2.61
2023-01-20T06:14:56.414Z,-2.51
2023-01-20T06:15:58.121Z,-2.71
2023-01-20T06:16:59.819Z,-2.72
2023-01-20T06:18:01.418Z,-2.69
2023-01-20T06:19:03.112Z,-2.56
2023-01-20T06:20:06.292Z,-2.52
2023-01-20T06:21:07.926Z,-2.63
2023-01-20T06:22:13.946Z,-2.32
2023-01-20T06:23:15.771Z,-2.50
2023-01-20T06:24:17.331Z,-2.50
2023-01-20T06:25:18.949Z,-2.54
2023-01-20T06:26:20.620Z,-2.51
2023-01-20T06:27:22.246Z,-2.50
2023-01-20T06:28:23.879Z,-2.48
2023-01-20T06:29:25.524Z,-2.58
2023-01-20T06:30:27.137Z,-2.66
2023-01-20T06:31:28.830Z,-2.68
2023-01-20T06:32:30.540Z,-2.70
2023-01-20T06:33:33.051Z,-2.75
2023-01-20T06:34:34.659Z,-2.73
2023-01-20T06:35:37.281Z,-2.81
2023-01-20T06:36:38.858Z,-2.79
2023-01-20T06:37:40.482Z,-2.89
2023-01-20T06:38:42.149Z,-2.96
2023-01-20T06:39:43.811Z,-3.05
2023-01-20T06:40:45.382Z,-2.97
2023-01-20T06:41:47.077Z,-2.97
2023-01-20T06:42:48.698Z,-3.07
2023-01-20T06:43:51.275Z,-2.97
2023-01-20T06:44:52.946Z,-2.94
2023-01-20T06:45:59.142Z,-3.08
2023-01-20T06:47:00.747Z,-2.99
2023-01-20T06:48:02.355Z,-3.00
2023-01-20T06:49:04.069Z,-2.94
2023-01-20T06:50:06.233Z,-2.88
2023-01-20T06:51:11.867Z,-2.96
2023-01-20T06:52:13.515Z,-2.99
2023-01-20T06:53:15.099Z,-2.98
2023-01-20T06:54:16.895Z,-2.97
2023-01-20T06:55:18.405Z,-3.03
2023-01-20T06:56:20.266Z,-3.06
2023-01-20T06:57:21.833Z,-2.93
2023-01-20T06:58:28.512Z,-2.95
2023-01-20T06:59:30.084Z,-2.97
2023-01-20T07:00:31.674Z,-2.95
2023-01-20T07:01:34.186Z,-2.99
2023-01-20T07:02:35.901Z,-2.95
2023-01-20T07:03:37.815Z,-2.85
2023-01-20T07:04:39.684Z,-2.89
2023-01-20T07:05:41.245Z,-2.79
2023-01-20T07:06:42.924Z,-2.82
2023-01-20T07:07:45.833Z,-2.94
2023-01-20T07:08:47.455Z,-2.90
2023-01-20T07:09:49.091Z,-2.81
2023-01-20T07:10:53.628Z,-2.87
2023-01-20T07:11:55.218Z,-2.79
2023-01-20T07:12:56.829Z,-2.97
2023-01-20T07:13:58.549Z,-2.96
2023-01-20T07:15:00.133Z,-3.03
2023-01-20T07:16:01.856Z,-3.12
2023-01-20T07:17:03.486Z,-3.07
2023-01-20T07:18:05.114Z,-3.03
2023-01-20T07:19:06.823Z,-3.12
2023-01-20T07:20:09.272Z,-3.11
2023-01-20T07:21:12.054Z,-3.13
2023-01-20T07:22:13.577Z,-3.25
2023-01-20T07:23:15.321Z,-3.31
2023-01-20T07:24:17.892Z,-3.39
2023-01-20T07:25:19.546Z,-3.51
2023-01-20T07:26:23.177Z,-3.50
2023-01-20T07:27:24.763Z,-3.51
2023-01-20T07:28:26.731Z,-3.49
2023-01-20T07:29:28.359Z,-3.52
2023-01-20T07:30:30.116Z,-3.60
2023-01-20T07:31:31.876Z,-3.57
2023-01-20T07:32:33.514Z,-3.50
2023-01-20T07:33:35.771Z,-3.51
2023-01-20T07:34:37.451Z,-3.50
2023-01-20T07:35:39.048Z,-3.36
2023-01-20T07:36:40.663Z,-3.31
2023-01-20T07:37:42.269Z,-3.35
2023-01-20T07:38:47.225Z,-3.38
2023-01-20T07:39:48.817Z,-3.38
2023-01-20T07:40:50.498Z,-3.36
2023-01-20T07:41:52.116Z,-3.25
2023-01-20T07:42:54.920Z,-3.22
2023-01-20T07:43:56.502Z,-3.17
2023-01-20T07:44:58.173Z,-3.33
2023-01-20T07:46:01.615Z,-3.30
2023-01-20T07:47:03.344Z,-3.32
2023-01-20T07:48:06.879Z,-3.32
2023-01-20T07:49:10.667Z,-3.27
2023-01-20T07:50:13.807Z,-3.13
2023-01-20T07:51:16.489Z,-3.15
2023-01-20T07:52:18.079Z,-3.07
2023-01-20T07:53:19.687Z,-3.00
2023-01-20T07:54:21.342Z,-3.11
2023-01-20T07:55:24.998Z,-2.96
2023-01-20T07:56:28.093Z,-2.97
2023-01-20T07:57:30.257Z,-3.14
2023-01-20T07:58:32.290Z,-3.17
2023-01-20T07:59:33.892Z,-3.02
2023-01-20T08:00:35.479Z,-3.13
2023-01-20T08:01:37.180Z,-3.08
2023-01-20T08:02:39.027Z,-3.04
2023-01-20T08:03:41.163Z,-3.06
2023-01-20T08:04:42.985Z,-3.02
2023-01-20T08:05:44.732Z,-2.99
2023-01-20T08:06:46.335Z,-2.76
2023-01-20T08:07:52.301Z,-2.67
2023-01-20T08:08:54.723Z,-2.54
2023-01-20T08:09:57.078Z,-2.54
2023-01-20T08:10:59.575Z,-2.45
2023-01-20T08:12:02.209Z,-2.39
2023-01-20T08:13:03.688Z,-2.46
2023-01-20T08:14:05.357Z,-2.45
2023-01-20T08:15:07.792Z,-2.36
2023-01-20T08:16:12.842Z,-2.48
2023-01-20T08:17:14.483Z,-2.71
2023-01-20T08:18:16.272Z,-2.61
2023-01-20T08:19:17.861Z,-2.64
2023-01-20T08:20:19.776Z,-2.61
2023-01-20T08:21:29.265Z,-2.71
2023-01-20T08:22:30.883Z,-2.61
2023-01-20T08:23:33.656Z,-2.52
2023-01-20T08:24:35.205Z,-2.60
2023-01-20T08:25:36.871Z,-2.47
2023-01-20T08:26:38.472Z,-2.49
2023-01-20T08:27:40.048Z,-2.45
2023-01-20T08:28:42.343Z,-2.42
2023-01-20T08:29:44.160Z,-2.37
2023-01-20T08:30:45.802Z,-2.26
2023-01-20T08:31:47.587Z,-2.19
2023-01-20T08:32:49.418Z,-2.25
2023-01-20T08:33:54.948Z,-2.35
2023-01-20T08:34:56.573Z,-2.48
2023-01-20T08:36:07.370Z,-2.42
2023-01-20T08:37:08.998Z,-2.39
2023-01-20T08:38:10.593Z,-2.57
2023-01-20T08:39:14.604Z,-2.57
2023-01-20T08:40:17.628Z,-2.56
2023-01-20T08:41:27.859Z,-2.45
2023-01-20T08:42:29.862Z,-2.45
2023-01-20T08:43:31.465Z,-2.52
2023-01-20T08:44:33.171Z,-2.39
2023-01-20T08:45:34.790Z,-2.33
2023-01-20T08:46:41.385Z,-2.43
2023-01-20T08:47:45.901Z,-2.39
2023-01-20T08:48:48.815Z,-2.40
2023-01-20T08:49:52.938Z,-2.38
2023-01-20T08:50:54.537Z,-2.46
2023-01-20T08:51:56.334Z,-2.39
2023-01-20T08:52:57.969Z,-2.38
2023-01-20T08:53:59.861Z,-2.53
2023-01-20T08:55:01.561Z,-2.48
2023-01-20T08:56:03.873Z,-2.40
2023-01-20T08:57:05.544Z,-2.33
2023-01-20T08:58:07.121Z,-2.44
2023-01-20T08:59:08.708Z,-2.47
2023-01-20T09:00:11.256Z,-2.36
2023-01-20T09:01:16.966Z,-2.54
2023-01-20T09:02:21.037Z,-2.75
2023-01-20T09:03:22.817Z,-2.71
2023-01-20T09:04:24.401Z,-2.66
2023-01-20T09:05:27.180Z,-2.65
2023-01-20T09:06:28.771Z,-2.61
2023-01-20T09:07:30.359Z,-2.53
2023-01-20T09:08:32.319Z,-2.45
2023-01-20T09:09:34.007Z,-2.62
2023-01-20T09:10:36.097Z,-2.77
2023-01-20T09:11:39.437Z,-2.81
2023-01-20T09:12:41.186Z,-2.79
2023-01-20T09:13:42.808Z,-2.80
2023-01-20T09:14:44.404Z,-2.76
2023-01-20T09:15:52.014Z,-2.73
2023-01-20T09:16:53.792Z,-2.56
2023-01-20T09:17:55.497Z,-2.25
2023-01-20T09:18:57.038Z,-2.06
2023-01-20T09:19:58.663Z,-1.93
2023-01-20T09:21:02.005Z,-1.72
2023-01-20T09:22:04.017Z,-1.62
2023-01-20T09:23:05.818Z,-1.38
2023-01-20T09:24:07.770Z,-0.91
2023-01-20T09:25:10.101Z,-0.61
2023-01-20T09:26:12.388Z,-0.54
2023-01-20T09:27:14.900Z,-0.07
2023-01-20T09:28:16.556Z,0.18
2023-01-20T09:29:20.651Z,-0.04
2023-01-20T09:30:22.357Z,-0.17
2023-01-20T09:31:24.067Z,-0.26
2023-01-20T09:32:25.721Z,-0.33
2023-01-20T09:33:27.504Z,-0.48
2023-01-20T09:34:29.489Z,-0.45
2023-01-20T09:35:31.222Z,-0.47
2023-01-20T09:36:32.843Z,-0.52
2023-01-20T09:37:52.897Z,-0.55
2023-01-20T09:39:13.252Z,-0.51
2023-01-20T09:40:37.548Z,-0.58
2023-01-20T09:41:58.385Z,-0.84
2023-01-20T09:43:21.535Z,-0.82
2023-01-20T09:44:35.132Z,-1.00
2023-01-20T09:45:40.198Z,-0.95
2023-01-20T09:47:10.296Z,-0.91
2023-01-20T09:48:35.149Z,-0.82
2023-01-20T09:50:02.441Z,-0.56
2023-01-20T09:51:27.281Z,-0.46
2023-01-20T09:52:55.488Z,-0.50
2023-01-20T09:54:04.020Z,-0.88
2023-01-20T09:55:12.999Z,-0.77
2023-01-20T09:56:17.652Z,-0.74
2023-01-20T09:57:21.636Z,-0.94
2023-01-20T09:58:37.012Z,-1.03
2023-01-20T09:59:52.574Z,-1.05
2023-01-20T10:01:07.257Z,-1.49
2023-01-20T10:02:17.209Z,-1.49
2023-01-20T10:03:24.822Z,-1.64
2023-01-20T10:04:37.116Z,-1.45
2023-01-20T10:05:39.816Z,-1.63
2023-01-20T10:06:44.012Z,-1.68
2023-01-20T10:07:56.235Z,-1.56
2023-01-20T10:09:06.489Z,-1.53
2023-01-20T10:10:17.395Z,-1.54
2023-01-20T10:11:20.328Z,-1.39
2023-01-20T10:12:34.284Z,-1.27
2023-01-20T10:13:47.395Z,-1.29
2023-01-20T10:15:12.630Z,-1.29
2023-01-20T10:16:23.761Z,-1.16
2023-01-20T10:17:30.925Z,-1.20
2023-01-20T10:18:56.578Z,-1.20
2023-01-20T10:20:17.585Z,-0.99
2023-01-20T10:21:31.476Z,-0.92
2023-01-20T10:22:41.076Z,-0.86
2023-01-20T10:23:48.246Z,-0.97
2023-01-20T10:24:55.579Z,-0.94
2023-01-20T10:26:20.030Z,-1.15
2023-01-20T10:27:25.185Z,-1.22
2023-01-20T10:28:28.952Z,-0.99
2023-01-20T10:29:55.838Z,-0.69
2023-01-20T10:30:58.773Z,-0.66
2023-01-20T10:32:02.860Z,-0.68
2023-01-20T10:33:10.964Z,-0.62
2023-01-20T10:34:19.409Z,-0.71
2023-01-20T10:35:24.406Z,-0.93
2023-01-20T10:36:29.882Z,-1.01
2023-01-20T10:37:32.149Z,-0.79
2023-01-20T10:38:46.650Z,-1.01
2023-01-20T10:40:10.343Z,-0.85
2023-01-20T10:41:22.482Z,-0.65
2023-01-20T10:42:26.036Z,-0.64
2023-01-20T10:43:28.061Z,-0.38
2023-01-20T10:44:33.238Z,-0.36
2023-01-20T10:46:00.261Z,-0.53
2023-01-20T10:47:29.877Z,-0.59
2023-01-20T10:48:46.676Z,-0.53
2023-01-20T10:49:52.886Z,-0.81
2023-01-20T10:51:00.055Z,-0.94
2023-01-20T10:52:15.197Z,-0.91
2023-01-20T10:53:58.246Z,-0.92
2023-01-20T10:55:10.344Z,-0.88
2023-01-20T10:56:36.014Z,-0.93
2023-01-20T10:57:38.525Z,-0.76
2023-01-20T10:58:43.512Z,-0.66
2023-01-20T10:59:48.233Z,-0.66
2023-01-20T11:00:50.203Z,-0.86
2023-01-20T11:01:59.394Z,-0.98
2023-01-20T11:03:14.675Z,-0.98
2023-01-20T11:04:19.268Z,-0.96
2023-01-20T11:05:30.758Z,-1.10
2023-01-20T11:06:33.036Z,-1.40
2023-01-20T11:07:34.661Z,-1.36
2023-01-20T11:08:36.313Z,-1.37
2023-01-20T11:09:37.907Z,-1.26
2023-01-20T11:10:40.150Z,-1.08
2023-01-20T11:11:41.829Z,-1.11
2023-01-20T11:12:44.913Z,-1.06
2023-01-20T11:13:46.577Z,-0.99
2023-01-20T11:14:48.705Z,-0.87
2023-01-20T11:15:59.300Z,-0.93
2023-01-20T11:17:05.634Z,-0.73
2023-01-20T11:18:15.995Z,-0.59
2023-01-20T11:19:17.634Z,-0.56
2023-01-20T11:20:20.809Z,-0.63
2023-01-20T11:21:24.618Z,-0.63
2023-01-20T11:22:30.336Z,-0.61
2023-01-20T11:23:35.803Z,-0.67
2023-01-20T11:24:44.003Z,-0.58
2023-01-20T11:25:55.206Z,-0.63
2023-01-20T11:27:05.825Z,-0.56
2023-01-20T11:28:16.942Z,-0.66
2023-01-20T11:29:19.077Z,-0.66
2023-01-20T11:30:27.769Z,-0.69
2023-01-20T11:31:48.504Z,-0.64
2023-01-20T11:33:22.534Z,-0.87
2023-01-20T11:34:29.904Z,-0.91
2023-01-20T11:35:31.513Z,-0.79
2023-01-20T11:36:33.077Z,-0.71
2023-01-20T11:37:37.563Z,-0.77
2023-01-20T11:38:50.162Z,-0.72
2023-01-20T11:39:51.650Z,-1.10
2023-01-20T11:40:54.216Z,-0.96
2023-01-20T11:42:41.452Z,-0.76
2023-01-20T11:43:43.115Z,-0.67
2023-01-20T11:44:47.792Z,-0.66
2023-01-20T11:45:49.442Z,-0.73
2023-01-20T11:46:51.131Z,-0.64
2023-01-20T11:48:19.939Z,-0.67
2023-01-20T11:49:22.474Z,-0.75
2023-01-20T11:50:38.915Z,-1.00
2023-01-20T11:51:48.855Z,-0.93
2023-01-20T11:52:50.508Z,-1.14
2023-01-20T11:54:07.094Z,-1.08
2023-01-20T11:55:25.391Z,-1.02
2023-01-20T11:56:27.122Z,-1.06
2023-01-20T11:57:28.700Z,-0.94
2023-01-20T11:58:34.684Z,-0.96
2023-01-20T11:59:37.288Z,-0.99
2023-01-20T12:00:42.197Z,-1.04
2023-01-20T12:01:58.326Z,-1.26
2023-01-20T12:03:22.770Z,-1.17
2023-01-20T12:04:36.352Z,-1.24
2023-01-20T12:05:44.780Z,-1.31
2023-01-20T12:07:03.668Z,-1.31
2023-01-20T12:08:10.722Z,-1.28
2023-01-20T12:09:16.928Z,-1.22
2023-01-20T12:10:28.073Z,-1.16
2023-01-20T12:11:53.584Z,-0.97
2023-01-20T12:13:01.218Z,-0.88
2023-01-20T12:14:25.622Z,-0.80
2023-01-20T12:15:33.352Z,-0.45
2023-01-20T12:16:36.159Z,-0.39
2023-01-20T12:17:52.974Z,-0.21
2023-01-20T12:19:02.213Z,-0.23
2023-01-20T12:20:10.168Z,-0.27
2023-01-20T12:21:18.216Z,-0.36
2023-01-20T12:22:33.176Z,-0.34
2023-01-20T12:24:06.821Z,-0.28
2023-01-20T12:25:34.519Z,-0.37
2023-01-20T12:26:36.486Z,-0.32
2023-01-20T12:27:45.390Z,-0.32
2023-01-20T12:29:05.669Z,-0.35
2023-01-20T12:30:17.160Z,-0.24
2023-01-20T12:31:20.545Z,-0.33
2023-01-20T12:32:22.229Z,-0.34
2023-01-20T12:33:32.799Z,-0.23
2023-01-20T12:34:35.375Z,-0.32
2023-01-20T12:35:41.955Z,-0.21
2023-01-20T12:36:46.489Z,-0.47
2023-01-20T12:37:55.746Z,-0.58
2023-01-20T12:39:17.638Z,-0.70
2023-01-20T12:40:40.820Z,-0.65
2023-01-20T12:41:53.658Z,-0.66
2023-01-20T12:43:33.404Z,-0.77
2023-01-20T12:44:57.432Z,-0.83
2023-01-20T12:46:14.058Z,-0.83
2023-01-20T12:47:27.848Z,-0.75
2023-01-20T12:48:42.732Z,-0.63
2023-01-20T12:49:50.391Z,-0.65
2023-01-20T12:51:20.602Z,-0.61
2023-01-20T12:52:28.267Z,-0.56
2023-01-20T12:53:39.146Z,-0.39
2023-01-20T12:55:22.400Z,-0.35
2023-01-20T12:56:48.926Z,-0.21
2023-01-20T12:58:02.463Z,-0.12
2023-01-20T12:59:27.268Z,-0.29
2023-01-20T13:00:37.543Z,-0.17
2023-01-20T13:02:06.370Z,-0.17
2023-01-20T13:03:23.226Z,0.25
2023-01-20T13:04:56.481Z,0.45
2023-01-20T13:07:05.964Z,0.73
2023-01-20T13:08:37.281Z,0.88
2023-01-20T13:09:49.495Z,0.65
2023-01-20T13:11:18.602Z,0.65
2023-01-20T13:12:41.617Z,0.53
2023-01-20T13:14:08.419Z,0.46
2023-01-20T13:15:19.729Z,0.55
2023-01-20T13:16:46.069Z,0.44
2023-01-20T13:18:15.612Z,0.38
2023-01-20T13:19:29.636Z,0.28
2023-01-20T13:20:31.675Z,0.18
2023-01-20T13:21:34.316Z,0.22
2023-01-20T13:22:35.828Z,0.21
2023-01-20T13:23:38.514Z,0.16
2023-01-20T13:24:41.075Z,0.16
2023-01-20T13:25:45.233Z,0.14
2023-01-20T13:26:47.940Z,0.10
2023-01-20T13:27:51.346Z,-0.01
2023-01-20T13:28:54.672Z,-0.05
2023-01-20T13:29:58.372Z,0.00
2023-01-20T13:31:01.956Z,-0.03
2023-01-20T13:32:04.854Z,-0.01
2023-01-20T13:33:17.601Z,-0.07
2023-01-20T13:34:22.132Z,0.01
2023-01-20T13:35:24.201Z,0.13
2023-01-20T13:36:25.788Z,0.13
2023-01-20T13:37:29.345Z,0.25
2023-01-20T13:38:33.228Z,0.25
2023-01-20T13:39:39.632Z,0.27
2023-01-20T13:40:53.050Z,0.29
2023-01-20T13:41:54.745Z,0.16
2023-01-20T13:42:56.345Z,-0.02
2023-01-20T13:43:58.204Z,0.21
2023-01-20T13:45:11.967Z,0.36
2023-01-20T13:46:17.133Z,0.37
2023-01-20T13:47:57.610Z,0.27
2023-01-20T13:49:10.944Z,0.23
2023-01-20T13:50:36.061Z,0.22
2023-01-20T13:51:37.632Z,0.31
2023-01-20T13:52:52.010Z,0.09
2023-01-20T13:53:53.814Z,0.01
2023-01-20T13:54:57.039Z,0.03
2023-01-20T13:56:00.790Z,0.03
2023-01-20T13:57:23.157Z,-0.07
2023-01-20T13:58:27.980Z,0.07
2023-01-20T13:59:29.550Z,-0.14
2023-01-20T14:00:31.171Z,0.14
2023-01-20T14:01:33.915Z,-0.02
2023-01-20T14:02:37.391Z,0.00
2023-01-20T14:03:40.330Z,-0.18
2023-01-20T14:04:46.202Z,-0.11
2023-01-20T14:06:01.711Z,-0.20
2023-01-20T14:07:09.716Z,-0.32
2023-01-20T14:08:15.161Z,-0.28
2023-01-20T14:09:24.586Z,-0.40
2023-01-20T14:10:26.597Z,-0.47
2023-01-20T14:11:29.456Z,-0.50
2023-01-20T14:12:31.025Z,-0.49